Time;durP1;ratioP1;P1;durP2;ratioP2;P2;SDS_P1;SDS_P2;PMS_P1;PMS_P2;Temp;Humidity;BMP_temperature;BMP_pressure;BME280_temperature;BME280_humidity;BME280_pressure;Samples;Min_cycle;Max_cycle;Signal;HPM_P1;HPM_P2
2023/03/22 00:01:19;;;;;;;8.00;7.30;;;11.10;82.30;;;;;;4982397;28;20192;-88
2023/03/22 00:03:46;;;;;;;9.13;8.40;;;11.10;82.30;;;;;;4983282;28;20174;-86
2023/03/22 00:06:12;;;;;;;7.97;7.27;;;11.10;82.00;;;;;;5019875;23;20246;-85
2023/03/22 00:08:39;;;;;;;8.67;7.87;;;11.00;82.30;;;;;;5041466;28;20304;-89
2023/03/22 00:11:05;;;;;;;8.30;7.60;;;11.00;82.50;;;;;;5041075;28;20199;-86
2023/03/22 00:13:33;;;;;;;8.87;7.30;;;11.00;83.10;;;;;;5040552;28;20200;-86
2023/03/22 00:16:01;;;;;;;7.77;7.07;;;10.90;83.50;;;;;;5044235;28;20208;-87
2023/03/22 00:18:27;;;;;;;9.93;7.43;;;10.90;83.90;;;;;;5027171;28;20216;-86
2023/03/22 00:20:55;;;;;;;8.57;7.70;;;11.00;83.50;;;;;;5042748;28;20185;-85
2023/03/22 00:23:22;;;;;;;8.27;7.63;;;11.00;83.30;;;;;;5042524;28;20219;-88
2023/03/22 00:25:48;;;;;;;8.23;7.43;;;10.90;83.40;;;;;;5044143;28;20208;-83
2023/03/22 00:28:15;;;;;;;8.30;7.03;;;10.90;83.60;;;;;;5044002;28;20205;-87
2023/03/22 00:30:41;;;;;;;8.20;7.40;;;10.90;83.60;;;;;;5043198;28;20178;-83
2023/03/22 00:33:07;;;;;;;7.20;6.50;;;11.00;82.60;;;;;;5042947;28;20173;-84
2023/03/22 00:35:33;;;;;;;7.17;6.57;;;11.00;82.50;;;;;;5041723;28;20259;-87
2023/03/22 00:38:05;;;;;;;7.57;6.77;;;11.00;82.50;;;;;;5042202;28;20177;-88
2023/03/22 00:40:34;;;;;;;7.63;6.93;;;11.00;82.50;;;;;;5040568;28;20759;-86
2023/03/22 00:43:00;;;;;;;7.47;6.63;;;10.90;82.80;;;;;;5040411;28;20195;-86
2023/03/22 00:45:26;;;;;;;7.20;6.60;;;11.00;82.70;;;;;;5041911;28;20185;-88
2023/03/22 00:47:51;;;;;;;6.43;5.80;;;10.90;82.80;;;;;;5048924;28;20233;-88
2023/03/22 00:50:17;;;;;;;6.13;5.63;;;10.90;82.40;;;;;;5047572;28;20204;-87
2023/03/22 00:52:42;;;;;;;7.20;6.50;;;10.90;82.50;;;;;;5049845;28;20220;-89
2023/03/22 00:55:08;;;;;;;7.53;6.77;;;10.90;82.20;;;;;;5053146;28;20181;-87
2023/03/22 00:57:34;;;;;;;6.73;6.20;;;10.80;82.50;;;;;;5049045;28;20187;-86
2023/03/22 01:00:07;;;;;;;6.73;5.87;;;10.80;82.50;;;;;;5024455;28;20184;-86
2023/03/22 01:02:32;;;;;;;7.77;5.93;;;10.80;82.20;;;;;;5041022;28;20177;-85
2023/03/22 01:04:58;;;;;;;6.33;5.77;;;10.90;82.30;;;;;;5040970;28;20204;-86
2023/03/22 01:07:24;;;;;;;7.13;5.87;;;10.90;81.90;;;;;;5039227;28;20377;-86
2023/03/22 01:09:50;;;;;;;6.00;5.50;;;10.90;82.40;;;;;;5038933;28;20184;-86
2023/03/22 01:12:19;;;;;;;6.20;5.70;;;10.80;82.20;;;;;;5039257;28;20177;-87
2023/03/22 01:14:45;;;;;;;7.00;6.37;;;10.80;82.30;;;;;;5038359;28;20179;-87
2023/03/22 01:17:17;;;;;;;6.80;6.17;;;10.80;82.20;;;;;;5038822;28;20231;-85
2023/03/22 01:19:43;;;;;;;8.13;6.23;;;10.70;82.20;;;;;;5020311;28;20232;-86
2023/03/22 01:22:08;;;;;;;7.33;6.60;;;10.70;82.40;;;;;;5042551;28;20660;-86
2023/03/22 01:24:34;;;;;;;6.37;5.80;;;10.70;82.50;;;;;;5040346;28;20197;-85
2023/03/22 01:27:00;;;;;;;9.10;5.47;;;10.60;83.20;;;;;;5040035;28;20212;-86
2023/03/22 01:29:26;;;;;;;6.20;5.60;;;10.60;83.40;;;;;;5040096;28;20643;-86
2023/03/22 01:31:51;;;;;;;6.70;6.10;;;10.70;83.20;;;;;;5044690;28;20680;-88
2023/03/22 01:34:17;;;;;;;6.47;5.87;;;10.70;82.70;;;;;;5049197;28;20174;-88
2023/03/22 01:36:43;;;;;;;6.80;6.10;;;10.60;82.10;;;;;;5046538;28;20212;-88
2023/03/22 01:39:09;;;;;;;5.97;5.37;;;10.50;82.70;;;;;;5047282;28;20190;-88
2023/03/22 01:41:36;;;;;;;5.27;4.73;;;10.40;83.50;;;;;;5048089;28;20199;-88
2023/03/22 01:44:14;;;;;;;5.03;4.60;;;10.40;83.30;;;;;;5047109;28;20204;-90
2023/03/22 01:46:41;;;;;;;6.33;5.83;;;10.40;84.00;;;;;;5047850;28;20210;-86
2023/03/22 01:49:14;;;;;;;5.67;5.27;;;10.30;83.90;;;;;;5053901;28;20201;-87
2023/03/22 01:51:42;;;;;;;5.80;4.70;;;10.30;84.00;;;;;;5050438;28;20183;-86
2023/03/22 01:54:15;;;;;;;4.97;4.47;;;10.30;83.50;;;;;;5048255;28;20534;-86
2023/03/22 01:56:41;;;;;;;5.30;3.93;;;10.10;84.30;;;;;;5044633;28;20213;-86
2023/03/22 01:59:11;;;;;;;4.60;4.20;;;10.10;84.70;;;;;;5040779;28;20191;-86
2023/03/22 02:01:37;;;;;;;4.90;4.50;;;10.10;84.30;;;;;;5043638;28;20225;-85
2023/03/22 02:04:19;;;;;;;6.00;5.50;;;10.30;83.60;;;;;;5042835;28;20178;-89
2023/03/22 02:06:45;;;;;;;5.20;4.73;;;10.20;83.50;;;;;;5041864;28;20247;-88
2023/03/22 02:09:15;;;;;;;4.40;4.00;;;10.20;84.40;;;;;;5043732;28;20174;-87
2023/03/22 02:11:45;;;;;;;4.87;4.17;;;10.20;83.70;;;;;;5042296;28;20183;-86
2023/03/22 02:14:25;;;;;;;7.23;5.77;;;10.20;83.60;;;;;;5041845;28;20553;-86
2023/03/22 02:17:21;;;;;;;6.87;5.50;;;10.20;82.90;;;;;;5041909;28;20204;-86
2023/03/22 02:20:27;;;;;;;5.87;5.27;;;10.10;83.60;;;;;;5044511;28;20171;-89
2023/03/22 02:23:26;;;;;;;6.13;5.63;;;10.00;83.90;;;;;;5044222;28;20270;-85
2023/03/22 02:25:52;;;;;;;6.30;5.63;;;10.00;83.90;;;;;;5043162;28;20219;-85
2023/03/22 02:28:26;;;;;;;6.03;5.50;;;10.00;83.70;;;;;;5043763;28;20200;-86
2023/03/22 02:31:26;;;;;;;6.73;6.13;;;9.90;83.70;;;;;;5043195;28;20176;-86
2023/03/22 02:34:16;;;;;;;5.87;5.43;;;10.00;83.20;;;;;;5037206;28;20195;-87
2023/03/22 02:37:05;;;;;;;5.90;5.40;;;9.90;84.50;;;;;;5022978;28;20206;-85
2023/03/22 02:39:55;;;;;;;6.07;5.50;;;9.80;84.00;;;;;;5041882;28;20188;-84
2023/03/22 02:42:21;;;;;;;5.80;5.30;;;9.90;84.00;;;;;;5041712;28;20728;-86
2023/03/22 02:45:09;;;;;;;5.87;5.37;;;9.80;84.50;;;;;;5042054;28;20210;-88
2023/03/22 02:47:40;;;;;;;5.70;5.20;;;9.90;84.60;;;;;;5051075;28;20208;-84
2023/03/22 02:50:12;;;;;;;6.53;5.50;;;9.90;84.50;;;;;;5043135;28;20187;-86
2023/03/22 02:52:52;;;;;;;6.37;5.77;;;10.00;84.60;;;;;;5043848;28;20176;-86
2023/03/22 02:55:33;;;;;;;6.47;5.80;;;10.00;84.30;;;;;;5043313;28;20183;-85
2023/03/22 02:58:27;;;;;;;6.20;5.70;;;10.00;84.60;;;;;;5043749;28;20167;-87
2023/03/22 03:00:59;;;;;;;6.10;5.50;;;10.00;87.00;;;;;;5035883;28;20211;-87
2023/03/22 03:03:28;;;;;;;6.17;5.67;;;10.00;86.90;;;;;;5042776;28;20219;-89
2023/03/22 03:05:57;;;;;;;6.33;5.73;;;10.00;86.90;;;;;;5049285;28;20227;-87
2023/03/22 03:08:25;;;;;;;5.60;5.10;;;9.90;87.20;;;;;;5050462;28;20646;-87
2023/03/22 03:10:52;;;;;;;3.77;3.47;;;10.00;87.50;;;;;;5050370;28;20183;-87
2023/03/22 03:13:18;;;;;;;5.33;4.93;;;9.90;87.60;;;;;;5049722;28;20250;-87
2023/03/22 03:15:52;;;;;;;6.47;4.80;;;9.80;88.40;;;;;;5049031;28;20216;-88
2023/03/22 03:18:36;;;;;;;4.57;4.17;;;9.80;88.40;;;;;;5050987;28;20168;-86
2023/03/22 03:21:17;;;;;;;4.07;3.77;;;9.80;87.70;;;;;;5054862;28;20188;-86
2023/03/22 03:24:06;;;;;;;3.97;3.60;;;9.90;87.90;;;;;;5051370;28;20551;-87
2023/03/22 03:27:13;;;;;;;4.20;3.80;;;9.80;87.10;;;;;;5051572;28;20202;-87
2023/03/22 03:29:47;;;;;;;5.47;3.80;;;9.90;87.20;;;;;;5049504;28;20182;-88
2023/03/22 03:32:24;;;;;;;4.10;3.80;;;9.90;87.40;;;;;;5042460;28;20181;-86
2023/03/22 03:35:05;;;;;;;5.80;3.77;;;9.80;87.40;;;;;;5041418;28;20189;-86
2023/03/22 03:37:38;;;;;;;4.43;3.80;;;10.00;85.80;;;;;;5025212;28;20198;-88
2023/03/22 03:40:09;;;;;;;6.00;3.77;;;10.00;85.50;;;;;;5041520;28;20186;-87
2023/03/22 03:42:39;;;;;;;6.53;4.27;;;10.00;85.50;;;;;;5053079;28;20697;-87
2023/03/22 03:45:06;;;;;;;4.73;3.97;;;10.00;85.40;;;;;;5051704;28;20203;-87
2023/03/22 03:47:34;;;;;;;4.70;4.33;;;10.00;85.00;;;;;;5025021;28;20696;-86
2023/03/22 03:50:01;;;;;;;5.27;4.73;;;9.90;86.30;;;;;;5042841;28;20582;-86
2023/03/22 03:52:28;;;;;;;6.20;5.27;;;9.70;86.70;;;;;;5043297;28;20201;-85
2023/03/22 03:54:54;;;;;;;5.73;4.77;;;9.60;87.80;;;;;;5042492;28;20171;-88
2023/03/22 03:57:19;;;;;;;6.60;4.67;;;9.50;88.80;;;;;;5042249;28;20603;-88
2023/03/22 03:59:45;;;;;;;5.20;4.77;;;9.40;89.50;;;;;;5041698;28;20267;-87
2023/03/22 04:02:11;;;;;;;4.83;4.43;;;9.30;89.70;;;;;;5040854;28;20226;-86
2023/03/22 04:04:37;;;;;;;5.57;4.80;;;9.40;89.80;;;;;;5039811;28;20193;-86
2023/03/22 04:07:05;;;;;;;5.67;5.07;;;9.40;89.60;;;;;;5040575;28;20202;-87
2023/03/22 04:09:36;;;;;;;5.33;4.93;;;9.50;89.20;;;;;;5041743;28;20182;-87
2023/03/22 04:12:02;;;;;;;5.17;4.77;;;9.50;87.60;;;;;;5044107;28;20162;-86
2023/03/22 04:14:28;;;;;;;8.97;5.80;;;9.40;87.90;;;;;;5044658;28;20207;-86
2023/03/22 04:16:54;;;;;;;6.87;5.63;;;9.40;88.30;;;;;;5044499;28;20218;-85
2023/03/22 04:19:21;;;;;;;5.30;4.80;;;9.40;88.80;;;;;;5045534;28;20187;-87
2023/03/22 04:21:47;;;;;;;5.73;5.33;;;9.40;89.50;;;;;;5045111;28;20175;-86
2023/03/22 04:24:13;;;;;;;5.23;4.83;;;9.30;90.20;;;;;;5046064;28;20164;-87
2023/03/22 04:26:40;;;;;;;5.20;4.80;;;9.40;89.80;;;;;;5045596;28;20210;-86
2023/03/22 04:29:06;;;;;;;5.40;4.90;;;9.40;89.50;;;;;;5046368;28;20184;-87
2023/03/22 04:31:32;;;;;;;4.90;4.50;;;9.50;89.40;;;;;;5047444;28;20187;-87
2023/03/22 04:34:04;;;;;;;5.53;5.03;;;9.50;89.20;;;;;;5048929;28;20180;-87
2023/03/22 04:36:35;;;;;;;8.00;4.53;;;9.50;88.90;;;;;;5048774;28;20200;-87
2023/03/22 04:39:04;;;;;;;9.40;5.27;;;9.60;88.70;;;;;;5053982;28;20194;-86
2023/03/22 04:41:30;;;;;;;4.90;4.23;;;9.60;87.00;;;;;;5047498;28;20665;-86
2023/03/22 04:43:56;;;;;;;4.97;4.63;;;9.50;88.70;;;;;;5046574;28;20593;-85
2023/03/22 04:46:22;;;;;;;4.87;4.47;;;9.40;88.70;;;;;;5042014;28;20199;-86
2023/03/22 04:48:48;;;;;;;5.10;4.70;;;9.50;89.50;;;;;;5041941;28;20206;-87
2023/03/22 04:51:14;;;;;;;5.00;4.60;;;9.40;90.00;;;;;;5042120;28;20169;-87
2023/03/22 04:53:40;;;;;;;4.50;4.10;;;9.30;89.90;;;;;;5041703;28;20220;-85
2023/03/22 04:56:08;;;;;;;5.70;5.20;;;9.20;91.50;;;;;;5041926;28;20203;-88
2023/03/22 04:58:38;;;;;;;5.90;4.27;;;9.00;92.80;;;;;;5042942;28;20188;-85
2023/03/22 05:01:04;;;;;;;4.77;4.37;;;9.00;93.50;;;;;;5043006;28;20161;-86
2023/03/22 05:03:30;;;;;;;4.70;4.27;;;8.90;93.70;;;;;;5042462;28;20212;-86
2023/03/22 05:05:58;;;;;;;4.10;3.70;;;8.90;94.10;;;;;;5040505;28;20223;-86
2023/03/22 05:08:25;;;;;;;4.40;4.00;;;8.90;94.20;;;;;;5040116;28;20354;-84
2023/03/22 05:10:56;;;;;;;5.53;4.70;;;8.90;94.20;;;;;;5028002;28;20197;-86
2023/03/22 05:13:25;;;;;;;4.90;4.50;;;8.90;95.10;;;;;;5021738;28;20166;-86
2023/03/22 05:15:51;;;;;;;5.63;4.60;;;9.00;93.30;;;;;;5036409;28;20230;-86
2023/03/22 05:18:23;;;;;;;6.27;5.13;;;9.00;92.50;;;;;;5040190;28;20201;-85
2023/03/22 05:20:49;;;;;;;6.47;4.83;;;9.00;92.30;;;;;;5041503;28;20188;-87
2023/03/22 05:23:18;;;;;;;5.30;4.53;;;9.00;91.90;;;;;;5038396;28;20178;-86
2023/03/22 05:25:45;;;;;;;6.73;4.47;;;9.00;91.70;;;;;;5039300;28;20238;-87
2023/03/22 05:28:13;;;;;;;5.87;4.53;;;9.10;91.10;;;;;;5042042;28;20203;-89
2023/03/22 05:30:42;;;;;;;5.77;4.40;;;8.90;92.10;;;;;;5039992;28;20165;-87
2023/03/22 05:33:08;;;;;;;5.60;4.50;;;8.90;92.40;;;;;;5038972;28;20179;-85
2023/03/22 05:35:36;;;;;;;4.53;4.13;;;8.80;92.50;;;;;;5039463;28;20198;-88
2023/03/22 05:38:02;;;;;;;5.80;4.80;;;8.90;92.50;;;;;;5041989;28;20225;-87
2023/03/22 05:40:28;;;;;;;5.70;4.47;;;8.80;92.70;;;;;;5044296;28;20540;-87
2023/03/22 05:42:54;;;;;;;5.40;4.50;;;8.80;92.70;;;;;;5044456;28;20177;-89
2023/03/22 05:45:21;;;;;;;4.70;4.30;;;8.80;92.90;;;;;;5043896;28;20184;-85
2023/03/22 05:47:48;;;;;;;4.90;4.40;;;8.80;92.90;;;;;;5044561;28;20643;-88
2023/03/22 05:50:16;;;;;;;6.13;4.90;;;8.80;93.40;;;;;;5044369;28;20205;-87
2023/03/22 05:52:43;;;;;;;6.30;4.30;;;8.80;93.80;;;;;;5025921;28;20203;-89
2023/03/22 05:55:11;;;;;;;5.07;4.40;;;8.80;94.10;;;;;;5044052;28;20187;-86
2023/03/22 05:57:37;;;;;;;6.77;4.80;;;8.80;93.80;;;;;;5043502;28;20203;-86
2023/03/22 06:00:12;;;;;;;17.87;5.83;;;8.90;92.30;;;;;;5042359;28;20185;-83
2023/03/22 06:02:48;;;;;;;8.37;5.40;;;8.90;90.90;;;;;;5043004;28;20188;-88
2023/03/22 06:05:16;;;;;;;13.20;5.70;;;8.80;91.30;;;;;;5042741;28;20162;-85
2023/03/22 06:07:41;;;;;;;6.17;5.17;;;8.80;92.20;;;;;;5042836;28;20193;-86
2023/03/22 06:10:11;;;;;;;6.10;4.93;;;8.80;93.10;;;;;;5044141;28;20177;-86
2023/03/22 06:12:36;;;;;;;6.50;5.30;;;8.80;92.90;;;;;;5044372;28;20183;-86
2023/03/22 06:15:02;;;;;;;5.20;4.70;;;8.90;92.70;;;;;;5044399;28;20679;-87
2023/03/22 06:17:28;;;;;;;5.73;4.23;;;9.00;92.90;;;;;;5044806;28;20198;-86
2023/03/22 06:19:54;;;;;;;5.83;5.10;;;9.10;92.20;;;;;;5025470;28;20223;-86
2023/03/22 06:22:20;;;;;;;6.60;4.37;;;9.20;92.40;;;;;;5044950;28;20218;-88
2023/03/22 06:24:46;;;;;;;6.33;4.50;;;9.20;92.30;;;;;;5043128;28;20186;-88
2023/03/22 06:27:12;;;;;;;5.17;4.70;;;9.10;92.90;;;;;;5043712;28;20224;-87
2023/03/22 06:29:38;;;;;;;5.27;4.47;;;9.20;92.80;;;;;;5067551;22;20292;-88
2023/03/22 06:32:05;;;;;;;5.33;4.80;;;9.20;93.20;;;;;;5045698;28;20217;-91
2023/03/22 06:34:30;;;;;;;5.47;4.73;;;9.30;92.50;;;;;;5052495;28;20213;-90
2023/03/22 06:36:56;;;;;;;5.97;5.33;;;9.40;91.50;;;;;;5047975;28;20190;-91
2023/03/22 06:39:22;;;;;;;7.57;4.97;;;9.40;91.20;;;;;;5046539;28;20319;-86
2023/03/22 06:41:48;;;;;;;6.73;5.13;;;9.40;91.20;;;;;;5048521;28;20705;-90
2023/03/22 06:44:14;;;;;;;6.10;5.10;;;9.50;90.80;;;;;;5048736;28;20175;-87
2023/03/22 06:46:40;;;;;;;5.80;5.30;;;9.60;90.50;;;;;;5048376;28;20202;-88
2023/03/22 06:49:06;;;;;;;6.07;5.20;;;9.50;90.90;;;;;;5046390;28;20210;-88
2023/03/22 06:51:33;;;;;;;7.23;5.13;;;9.60;91.10;;;;;;5030931;28;20166;-90
2023/03/22 06:53:59;;;;;;;6.53;4.90;;;9.70;91.00;;;;;;5047229;28;20197;-85
2023/03/22 06:56:25;;;;;;;5.40;4.90;;;9.60;90.90;;;;;;5048432;28;20193;-84
2023/03/22 06:58:53;;;;;;;5.07;4.53;;;9.60;91.80;;;;;;5048225;28;20352;-89
2023/03/22 07:01:19;;;;;;;7.37;6.50;;;9.50;92.00;;;;;;5041539;28;20191;-86
2023/03/22 07:03:45;;;;;;;5.40;4.90;;;9.60;92.40;;;;;;5048921;28;20178;-90
2023/03/22 07:06:11;;;;;;;5.20;4.70;;;9.80;91.80;;;;;;5047520;28;20694;-88
2023/03/22 07:08:36;;;;;;;5.83;4.77;;;9.90;91.80;;;;;;5047492;28;20208;-88
2023/03/22 07:11:03;;;;;;;5.43;5.03;;;9.80;92.50;;;;;;5047403;28;20233;-88
2023/03/22 07:13:29;;;;;;;7.07;5.17;;;10.00;91.10;;;;;;5029431;28;20206;-88
2023/03/22 07:15:56;;;;;;;5.47;4.97;;;10.00;91.70;;;;;;5046189;28;20196;-89
2023/03/22 07:18:22;;;;;;;5.60;5.10;;;10.00;92.00;;;;;;5029451;28;20664;-84
2023/03/22 07:20:48;;;;;;;7.27;5.63;;;10.00;91.70;;;;;;5050432;28;20285;-93
2023/03/22 07:23:15;;;;;;;6.93;5.23;;;10.00;94.40;;;;;;5068111;28;20200;-86
2023/03/22 07:25:41;;;;;;;6.87;5.10;;;10.00;93.80;;;;;;5068153;28;20197;-91
2023/03/22 07:28:09;;;;;;;4.90;4.40;;;10.10;94.20;;;;;;5055426;28;20317;-85
2023/03/22 07:30:36;;;;;;;5.23;4.73;;;10.40;93.70;;;;;;5054209;28;20217;-91
2023/03/22 07:33:02;;;;;;;8.03;4.90;;;10.60;91.90;;;;;;5046625;28;20183;-85
2023/03/22 07:35:28;;;;;;;8.83;4.83;;;10.90;89.20;;;;;;5047740;28;20232;-90
2023/03/22 07:37:54;;;;;;;7.13;4.33;;;11.00;89.40;;;;;;5049352;28;20216;-87
2023/03/22 07:40:21;;;;;;;4.70;4.23;;;11.00;87.30;;;;;;5019380;28;20205;-87
2023/03/22 07:42:48;;;;;;;5.70;3.70;;;11.10;87.60;;;;;;5026329;28;20281;-86
2023/03/22 07:45:13;;;;;;;4.53;3.60;;;11.40;83.80;;;;;;5027273;28;20185;-85
2023/03/22 07:47:39;;;;;;;5.50;3.67;;;11.50;86.00;;;;;;5027080;28;20213;-83
2023/03/22 07:50:05;;;;;;;5.43;3.63;;;11.70;81.00;;;;;;5027648;28;20478;-88
2023/03/22 07:52:31;;;;;;;3.67;3.37;;;11.80;79.70;;;;;;5028830;28;20166;-92
2023/03/22 07:54:56;;;;;;;9.37;3.93;;;11.90;81.90;;;;;;5027345;28;20198;-91
2023/03/22 07:57:22;;;;;;;4.90;4.00;;;12.00;78.60;;;;;;5028165;28;20202;-86
2023/03/22 07:59:50;;;;;;;3.93;3.60;;;12.20;77.80;;;;;;5030969;28;20757;-89
2023/03/22 08:02:16;;;;;;;4.40;3.53;;;12.20;76.10;;;;;;5045673;28;20213;-89
2023/03/22 08:04:41;;;;;;;3.57;3.23;;;12.20;77.10;;;;;;5046580;28;20173;-91
2023/03/22 08:07:08;;;;;;;4.37;3.47;;;12.20;76.90;;;;;;5029589;28;20201;-84
2023/03/22 08:09:35;;;;;;;3.80;3.40;;;12.30;77.20;;;;;;5047263;28;20213;-88
2023/03/22 08:12:01;;;;;;;6.87;3.73;;;12.50;75.00;;;;;;5045016;28;20181;-86
2023/03/22 08:14:27;;;;;;;4.67;3.53;;;12.70;74.10;;;;;;5046022;28;20187;-90
2023/03/22 08:16:52;;;;;;;5.00;3.50;;;12.90;73.50;;;;;;5051168;28;20200;-87
2023/03/22 08:19:18;;;;;;;4.80;3.40;;;13.00;73.40;;;;;;5016528;28;20265;-94
2023/03/22 08:21:43;;;;;;;4.40;3.70;;;13.10;72.90;;;;;;5035939;28;20254;-91
2023/03/22 08:24:09;;;;;;;4.40;3.33;;;13.20;71.90;;;;;;5042584;28;20244;-91
2023/03/22 08:26:36;;;;;;;4.63;3.23;;;13.40;68.80;;;;;;5057523;28;20457;-90
2023/03/22 08:29:02;;;;;;;3.13;2.80;;;13.40;70.20;;;;;;5050161;28;20204;-87
2023/03/22 08:31:28;;;;;;;8.17;3.57;;;13.40;70.60;;;;;;5043625;28;20234;-84
2023/03/22 08:33:54;;;;;;;3.90;3.37;;;13.60;69.60;;;;;;5044540;28;20189;-86
2023/03/22 08:36:24;;;;;;;4.77;3.40;;;13.60;68.20;;;;;;5044756;28;20177;-90
2023/03/22 08:38:50;;;;;;;5.63;2.80;;;13.70;68.40;;;;;;5045734;28;20169;-86
2023/03/22 08:41:15;;;;;;;3.60;3.30;;;13.90;69.80;;;;;;5038144;28;20177;-89
2023/03/22 08:43:42;;;;;;;2.80;2.60;;;14.00;70.00;;;;;;5009117;28;20185;-86
2023/03/22 08:46:08;;;;;;;3.03;2.70;;;14.20;67.30;;;;;;5026100;28;20189;-86
2023/03/22 08:48:36;;;;;;;3.23;2.93;;;14.20;66.50;;;;;;5027442;28;20258;-87
2023/03/22 08:51:03;;;;;;;3.30;2.70;;;14.30;69.20;;;;;;5028359;28;20189;-89
2023/03/22 08:53:29;;;;;;;2.93;2.73;;;14.30;67.50;;;;;;5009893;28;20216;-87
2023/03/22 08:55:57;;;;;;;3.20;2.63;;;14.30;67.70;;;;;;5027595;28;20196;-85
2023/03/22 08:58:22;;;;;;;4.73;2.80;;;14.20;66.60;;;;;;5027990;28;20182;-88
2023/03/22 09:00:48;;;;;;;7.40;3.13;;;14.20;70.40;;;;;;5026218;28;20232;-85
2023/03/22 09:03:15;;;;;;;3.77;3.27;;;14.40;67.80;;;;;;5025723;28;20251;-86
2023/03/22 09:05:41;;;;;;;4.80;2.53;;;14.50;65.70;;;;;;5026670;28;20240;-91
2023/03/22 09:08:07;;;;;;;4.00;2.97;;;14.50;65.50;;;;;;5025183;28;20207;-89
2023/03/22 09:10:33;;;;;;;3.17;2.80;;;14.60;67.50;;;;;;5030635;28;20206;-91
2023/03/22 09:12:59;;;;;;;2.73;2.53;;;14.60;67.30;;;;;;5025442;28;20250;-91
2023/03/22 09:15:25;;;;;;;3.17;2.40;;;14.80;64.50;;;;;;5026955;28;20210;-88
2023/03/22 09:17:50;;;;;;;4.40;2.80;;;14.50;65.80;;;;;;5045441;28;20213;-88
2023/03/22 09:20:17;;;;;;;3.63;2.50;;;14.60;67.00;;;;;;5048345;28;20218;-88
2023/03/22 09:22:43;;;;;;;2.53;2.33;;;14.80;64.40;;;;;;5035562;28;20863;-88
2023/03/22 09:25:09;;;;;;;2.30;2.10;;;15.00;64.20;;;;;;5021146;28;20218;-91
2023/03/22 09:27:35;;;;;;;2.47;2.27;;;15.10;63.80;;;;;;5046134;28;20284;-87
2023/03/22 09:30:00;;;;;;;2.60;2.40;;;15.30;62.80;;;;;;5045849;28;20216;-88
2023/03/22 09:32:26;;;;;;;3.27;2.30;;;15.50;62.50;;;;;;5038814;28;20209;-91
2023/03/22 09:34:52;;;;;;;3.20;2.27;;;15.30;62.80;;;;;;5025109;28;20175;-88
2023/03/22 09:37:19;;;;;;;3.03;2.73;;;15.30;62.10;;;;;;5025152;28;20467;-86
2023/03/22 09:39:45;;;;;;;5.47;2.70;;;15.50;62.20;;;;;;5024076;28;20231;-90
2023/03/22 09:42:38;;;;;;;3.00;2.60;;;15.80;60.30;;;;;;5029355;28;20187;-87
2023/03/22 09:45:11;;;;;;;3.07;2.10;;;16.00;59.40;;;;;;5039959;28;20438;-89
2023/03/22 09:47:40;;;;;;;2.13;1.93;;;16.00;59.50;;;;;;5045419;28;20704;-89
2023/03/22 09:50:11;;;;;;;1.60;1.60;;;16.10;58.50;;;;;;5045663;28;20204;-88
2023/03/22 09:52:38;;;;;;;2.00;1.90;;;16.00;58.70;;;;;;5045157;28;20256;-91
2023/03/22 09:55:12;;;;;;;2.23;2.00;;;16.20;59.30;;;;;;5045617;28;20260;-89
2023/03/22 09:57:38;;;;;;;5.90;2.17;;;16.10;60.10;;;;;;5046590;28;20183;-87
2023/03/22 10:00:40;;;;;;;2.10;2.00;;;16.20;59.80;;;;;;5046546;28;20193;-86
2023/03/22 10:03:27;;;;;;;3.27;1.83;;;16.20;57.70;;;;;;5029487;28;20184;-86
2023/03/22 10:06:07;;;;;;;2.57;2.10;;;16.20;57.50;;;;;;5045023;28;20187;-91
2023/03/22 10:09:01;;;;;;;2.63;1.90;;;16.50;58.10;;;;;;5028396;28;20196;-86
2023/03/22 10:11:40;;;;;;;3.80;2.10;;;16.70;57.00;;;;;;5003639;28;20190;-87
2023/03/22 10:14:33;;;;;;;3.70;2.33;;;17.00;56.70;;;;;;5014455;28;20190;-86
2023/03/22 10:17:04;;;;;;;3.60;2.10;;;17.30;55.90;;;;;;5054234;28;20680;-90
2023/03/22 10:19:47;;;;;;;2.30;2.10;;;17.30;54.00;;;;;;5034823;28;20261;-89
2023/03/22 10:22:17;;;;;;;2.17;1.93;;;17.20;54.70;;;;;;5007977;28;20239;-87
2023/03/22 10:24:46;;;;;;;2.73;2.10;;;17.30;53.80;;;;;;5026037;28;20176;-88
2023/03/22 10:27:15;;;;;;;2.40;2.10;;;17.40;52.70;;;;;;5027591;28;20205;-90
2023/03/22 10:30:06;;;;;;;2.40;2.20;;;17.60;53.50;;;;;;5028190;28;20217;-87
2023/03/22 10:32:45;;;;;;;2.10;2.00;;;17.40;52.80;;;;;;5022045;28;20195;-88
2023/03/22 10:35:14;;;;;;;1.97;1.87;;;17.40;54.60;;;;;;5043140;28;20178;-90
2023/03/22 10:37:46;;;;;;;2.73;2.53;;;17.30;54.50;;;;;;5048962;28;20203;-84
2023/03/22 10:40:23;;;;;;;1.80;1.70;;;17.40;55.70;;;;;;5040285;28;20278;-86
2023/03/22 10:43:10;;;;;;;2.20;2.00;;;17.10;53.10;;;;;;5049648;28;20177;-89
2023/03/22 10:45:36;;;;;;;2.73;2.27;;;17.00;55.30;;;;;;5050219;28;20641;-91
2023/03/22 10:48:08;;;;;;;4.13;2.10;;;16.80;55.10;;;;;;5049703;28;20210;-88
2023/03/22 10:50:40;;;;;;;3.17;1.90;;;17.00;55.30;;;;;;5050136;28;20224;-88
2023/03/22 10:53:29;;;;;;;2.37;2.10;;;17.00;55.10;;;;;;5046222;28;20176;-87
2023/03/22 10:55:55;;;;;;;2.23;2.03;;;17.10;54.20;;;;;;5049614;28;20170;-86
2023/03/22 10:58:28;;;;;;;2.13;1.93;;;17.10;55.10;;;;;;5049074;28;20181;-87
2023/03/22 11:00:58;;;;;;;2.10;1.90;;;17.30;54.60;;;;;;5039202;28;20284;-91
2023/03/22 11:03:59;;;;;;;3.20;2.10;;;17.70;52.90;;;;;;5027793;28;20212;-89
2023/03/22 11:06:31;;;;;;;2.30;2.20;;;18.10;53.40;;;;;;5019996;28;20290;-88
2023/03/22 11:09:00;;;;;;;4.00;2.33;;;18.00;51.40;;;;;;5030584;28;20247;-86
2023/03/22 11:11:30;;;;;;;2.20;2.00;;;18.20;51.90;;;;;;5049525;28;20203;-88
2023/03/22 11:14:05;;;;;;;2.23;2.07;;;18.20;51.60;;;;;;5062376;28;20800;-91
2023/03/22 11:16:39;;;;;;;2.83;2.03;;;18.30;51.60;;;;;;5049223;28;20173;-93
2023/03/22 11:19:05;;;;;;;8.07;2.70;;;18.50;50.50;;;;;;5050030;28;20209;-89
2023/03/22 11:21:32;;;;;;;7.43;2.23;;;18.40;49.30;;;;;;5048896;28;20188;-92
2023/03/22 11:24:04;;;;;;;4.77;2.20;;;18.50;50.30;;;;;;5030325;28;20200;-87
2023/03/22 11:26:33;;;;;;;1.90;1.80;;;18.90;47.40;;;;;;5047461;28;20192;-90
2023/03/22 11:29:20;;;;;;;2.20;2.07;;;18.80;49.00;;;;;;5028427;28;20243;-86
2023/03/22 11:31:53;;;;;;;2.13;2.00;;;19.00;48.70;;;;;;5044167;28;20183;-88
2023/03/22 11:34:20;;;;;;;2.27;2.07;;;18.80;48.70;;;;;;5032077;28;20205;-89
2023/03/22 11:36:55;;;;;;;2.10;2.00;;;19.00;49.40;;;;;;5049045;28;20175;-88
2023/03/22 11:39:22;;;;;;;2.43;2.23;;;18.70;47.60;;;;;;5061728;28;20259;-87
2023/03/22 11:41:48;;;;;;;2.27;2.17;;;19.20;48.90;;;;;;5051656;28;20207;-90
2023/03/22 11:44:18;;;;;;;2.15;2.05;;;18.90;46.00;;;;;;5053226;28;20591;-85
2023/03/22 11:47:03;;;;;;;2.25;2.13;;;18.80;48.50;;;;;;5066051;28;20262;-87
2023/03/22 11:49:41;;;;;;;3.80;2.35;;;18.90;47.00;;;;;;5064933;28;20660;-85
2023/03/22 11:52:10;;;;;;;2.95;2.67;;;19.20;47.50;;;;;;5046984;28;20180;-86
2023/03/22 11:54:38;;;;;;;2.38;2.20;;;19.20;45.50;;;;;;5046481;28;20176;-85
2023/03/22 11:57:08;;;;;;;2.42;2.30;;;19.60;44.60;;;;;;5026961;28;20207;-90
2023/03/22 11:59:41;;;;;;;2.38;2.25;;;19.30;45.50;;;;;;5045603;28;20819;-86
2023/03/22 12:02:12;;;;;;;3.15;2.30;;;19.50;45.40;;;;;;5030065;28;20453;-88
2023/03/22 12:04:40;;;;;;;3.63;2.58;;;19.90;43.70;;;;;;5028502;28;20240;-87
2023/03/22 12:07:20;;;;;;;3.45;2.90;;;20.20;45.00;;;;;;5043257;28;20217;-88
2023/03/22 12:10:05;;;;;;;2.90;2.60;;;20.00;43.60;;;;;;5051074;28;20257;-85
2023/03/22 12:12:37;;;;;;;2.58;2.38;;;19.60;44.20;;;;;;5048933;28;20180;-88
2023/03/22 12:15:12;;;;;;;4.07;2.65;;;19.50;45.40;;;;;;5046991;28;20172;-89
2023/03/22 12:18:03;;;;;;;3.92;2.92;;;19.60;45.40;;;;;;5049422;28;20176;-87
2023/03/22 12:20:38;;;;;;;3.22;2.83;;;19.50;44.60;;;;;;5055041;28;20200;-86
2023/03/22 12:23:13;;;;;;;4.13;2.45;;;20.00;42.80;;;;;;5049075;28;20190;-89
2023/03/22 12:25:40;;;;;;;2.65;2.45;;;20.30;42.90;;;;;;5048805;28;20203;-89
2023/03/22 12:28:12;;;;;;;2.80;2.60;;;20.30;44.10;;;;;;5050140;28;20290;-87
2023/03/22 12:30:44;;;;;;;2.70;2.50;;;19.60;44.50;;;;;;5053929;28;20201;-85
2023/03/22 12:33:27;;;;;;;3.13;2.50;;;19.80;44.90;;;;;;5049907;28;20242;-88
2023/03/22 12:36:03;;;;;;;2.70;2.47;;;20.00;45.30;;;;;;5049624;28;20175;-87
2023/03/22 12:38:40;;;;;;;2.78;2.58;;;19.80;44.70;;;;;;5048872;28;20210;-84
2023/03/22 12:41:11;;;;;;;3.33;2.83;;;19.40;44.50;;;;;;5027804;28;20210;-87
2023/03/22 12:43:53;;;;;;;2.72;2.30;;;19.90;43.80;;;;;;5036571;28;20193;-91
2023/03/22 12:46:28;;;;;;;3.00;2.65;;;20.40;43.60;;;;;;5029440;28;20682;-89
2023/03/22 12:48:57;;;;;;;2.72;2.50;;;20.90;42.40;;;;;;5012836;28;20220;-86
2023/03/22 12:51:23;;;;;;;5.03;2.75;;;21.00;42.00;;;;;;5033341;28;20202;-87
2023/03/22 12:53:52;;;;;;;3.22;2.92;;;20.90;41.30;;;;;;5029636;28;20192;-89
2023/03/22 12:56:35;;;;;;;3.30;2.72;;;20.80;41.60;;;;;;5029618;28;20194;-89
2023/03/22 12:59:03;;;;;;;3.15;2.95;;;20.90;40.60;;;;;;5027767;28;20232;-85
2023/03/22 13:02:02;;;;;;;3.00;2.80;;;20.80;40.90;;;;;;5027577;28;20185;-89
2023/03/22 13:04:34;;;;;;;4.32;2.95;;;20.50;41.50;;;;;;5039430;28;20268;-87
2023/03/22 13:07:12;;;;;;;3.33;3.03;;;20.40;42.10;;;;;;5051011;28;20184;-87